To NAV CANADA Home Page Login to a new session Search on AWWS site Feedback and Comments Disclaimer Vers la page française équivalente Tips FAQ What's new on the site To the Forecasts and Observations / NOTAM section To "File a Flight Plan" website Publications and other links Update of the User's profile FIC Telephone Numbers My Weather Data Folder Route Weather Data Regional Weather Data Local Weather Data To the Forecasts and Observations / NOTAM section
Request Generated 08/30/2015 at 17:55:07 UTC . Weather information available at that time is displayed.

METAR/TAF

KINDERSLEY/KINDERSLEY REGIONAL/SK    

METAR CYKY 301700Z 23021G27KT 15SM SCT045 BKN260 23/05 A2962 RMK
SC4CI2 SLP018 DENSITY ALT 4000FT=
METAR CYKY 301600Z 23020G25KT 15SM BKN042 BKN090 20/04 A2964 RMK
SC6AC1 SLP026 DENSITY ALT 3700FT=
METAR CYKY 301500Z 22015KT 15SM FEW040 SCT090 BKN260 19/04 A2964 RMK
SC1AC2CI2 SLP027 DENSITY ALT 3500FT=

CYKY - No TAF is issued for this station

Your time UTC time
Weather data provided by Environment Canada and NAV CANADA